Time;durP1;ratioP1;P1;durP2;ratioP2;P2;SDS_P1;SDS_P2;PMS_P1;PMS_P2;Temp;Humidity;BMP_temperature;BMP_pressure;BME280_temperature;BME280_humidity;BME280_pressure;Samples;Min_cycle;Max_cycle;Signal;HPM_P1;HPM_P2
2023/02/11 00:01:34;;;;;;;31.97;20.17;;;5.30;49.20;;;;;;5030757;28;20217;-54
2023/02/11 00:04:01;;;;;;;31.70;20.10;;;5.30;49.30;;;;;;5020126;28;20260;-52
2023/02/11 00:06:28;;;;;;;32.73;18.90;;;5.30;49.30;;;;;;5011014;28;20823;-52
2023/02/11 00:08:55;;;;;;;31.43;19.67;;;5.30;49.10;;;;;;5020623;28;20421;-55
2023/02/11 00:11:24;;;;;;;29.40;19.10;;;5.20;49.30;;;;;;5017690;28;20440;-53
2023/02/11 00:13:50;;;;;;;28.40;19.13;;;5.30;49.30;;;;;;5028512;28;20448;-53
2023/02/11 00:16:18;;;;;;;28.03;19.57;;;5.40;49.10;;;;;;5021176;28;20503;-52
2023/02/11 00:18:43;;;;;;;32.10;20.80;;;5.30;48.90;;;;;;5015920;28;20197;-52
2023/02/11 00:21:11;;;;;;;30.83;20.20;;;5.10;49.30;;;;;;5020640;28;21239;-53
2023/02/11 00:23:37;;;;;;;29.77;21.20;;;4.70;50.00;;;;;;5029649;28;20194;-54
2023/02/11 00:26:03;;;;;;;35.70;20.30;;;4.50;50.70;;;;;;5024396;28;20444;-54
2023/02/11 00:28:29;;;;;;;29.40;18.30;;;4.50;51.00;;;;;;5020217;28;20193;-51
2023/02/11 00:30:56;;;;;;;27.40;17.50;;;4.50;51.10;;;;;;5022006;28;20854;-53
2023/02/11 00:33:21;;;;;;;31.90;20.00;;;4.60;50.90;;;;;;5022262;28;20185;-54
2023/02/11 00:35:47;;;;;;;32.77;20.90;;;4.60;50.70;;;;;;5018603;28;20962;-53
2023/02/11 00:38:12;;;;;;;28.27;19.20;;;4.60;50.70;;;;;;5025991;28;20641;-52
2023/02/11 00:40:39;;;;;;;30.63;18.87;;;4.60;50.60;;;;;;5019062;28;20780;-51
2023/02/11 00:43:05;;;;;;;28.80;18.87;;;4.60;50.90;;;;;;5027339;28;20514;-53
2023/02/11 00:45:30;;;;;;;35.70;20.73;;;4.60;50.80;;;;;;5017142;28;20201;-54
2023/02/11 00:47:56;;;;;;;28.93;18.73;;;4.70;50.80;;;;;;5010436;28;20201;-52
2023/02/11 00:50:22;;;;;;;31.07;19.77;;;4.80;50.50;;;;;;5027249;28;20201;-51
2023/02/11 00:52:48;;;;;;;30.63;18.27;;;4.60;51.00;;;;;;5026531;28;20451;-54
2023/02/11 00:55:14;;;;;;;27.27;18.30;;;4.70;50.50;;;;;;5023103;28;20201;-53
2023/02/11 00:57:40;;;;;;;32.90;21.40;;;4.70;50.50;;;;;;5028268;28;20772;-53
2023/02/11 01:00:06;;;;;;;28.60;19.80;;;4.70;50.40;;;;;;5027597;28;20646;-51
2023/02/11 01:02:32;;;;;;;32.00;19.20;;;4.80;50.40;;;;;;5029745;28;20864;-51
2023/02/11 01:04:59;;;;;;;31.90;19.70;;;4.80;50.40;;;;;;5026413;28;20436;-54
2023/02/11 01:07:26;;;;;;;30.60;19.27;;;4.60;50.30;;;;;;5030395;28;20450;-53
2023/02/11 01:09:52;;;;;;;28.40;19.37;;;4.40;50.70;;;;;;5023944;28;20443;-51
2023/02/11 01:12:18;;;;;;;26.80;18.30;;;4.40;51.20;;;;;;5024345;28;20915;-51
2023/02/11 01:14:43;;;;;;;32.97;20.47;;;4.30;51.50;;;;;;5028360;28;20450;-54
2023/02/11 01:17:09;;;;;;;35.83;18.10;;;4.40;51.40;;;;;;5031742;28;20946;-50
2023/02/11 01:19:37;;;;;;;30.97;20.63;;;4.40;51.30;;;;;;5025230;28;20185;-52
2023/02/11 01:22:03;;;;;;;29.40;19.17;;;4.00;51.60;;;;;;5013709;28;20225;-51
2023/02/11 01:24:28;;;;;;;32.20;19.80;;;3.50;52.80;;;;;;5025684;28;20437;-50
2023/02/11 01:26:54;;;;;;;31.13;20.20;;;3.40;53.70;;;;;;5023906;28;21033;-51
2023/02/11 01:29:20;;;;;;;33.77;19.07;;;3.60;53.90;;;;;;5024687;28;20696;-52
2023/02/11 01:31:46;;;;;;;26.93;18.27;;;3.80;53.10;;;;;;5031794;28;20432;-52
2023/02/11 01:34:11;;;;;;;29.87;18.80;;;4.10;52.60;;;;;;5026126;28;20196;-51
2023/02/11 01:36:37;;;;;;;27.40;18.30;;;4.20;51.80;;;;;;5032068;28;20190;-51
2023/02/11 01:39:03;;;;;;;34.90;20.03;;;4.30;51.60;;;;;;5025600;28;20247;-51
2023/02/11 01:41:29;;;;;;;31.97;19.00;;;4.20;51.70;;;;;;5023309;28;20233;-53
2023/02/11 01:43:54;;;;;;;32.47;19.60;;;4.30;51.80;;;;;;5029435;28;20871;-52
2023/02/11 01:46:31;;;;;;;29.40;17.93;;;4.30;51.60;;;;;;5024160;28;20658;-54
2023/02/11 01:49:09;;;;;;;28.07;18.20;;;4.40;51.50;;;;;;5030129;28;20228;-54
2023/02/11 01:51:48;;;;;;;28.90;19.10;;;4.40;51.30;;;;;;5029374;28;20452;-51
2023/02/11 02:00:07;;;;;;;31.13;19.17;;;4.60;50.60;;;;;;5028978;28;20451;-52
2023/02/11 02:02:51;;;;;;;36.03;19.73;;;4.60;50.50;;;;;;5021810;28;20471;-51
2023/02/11 02:05:22;;;;;;;30.00;19.73;;;4.70;50.40;;;;;;5019665;28;20440;-54
2023/02/11 02:08:00;;;;;;;32.80;20.30;;;4.70;50.20;;;;;;5025956;28;20490;-51
2023/02/11 02:10:27;;;;;;;29.20;18.77;;;4.70;50.10;;;;;;5030840;28;20447;-51
2023/02/11 02:12:53;;;;;;;31.60;18.53;;;4.70;50.20;;;;;;5009145;28;20449;-53
2023/02/11 02:15:35;;;;;;;31.97;18.33;;;4.70;50.20;;;;;;5020263;28;20474;-53
2023/02/11 02:18:06;;;;;;;33.00;18.70;;;4.80;50.20;;;;;;5028047;28;20962;-52
2023/02/11 02:20:41;;;;;;;33.93;19.80;;;4.80;50.00;;;;;;5024784;28;20492;-52
2023/02/11 02:23:33;;;;;;;29.43;18.17;;;4.80;50.00;;;;;;5023964;28;20440;-51
2023/02/11 02:26:20;;;;;;;25.67;17.77;;;4.80;50.10;;;;;;5019977;28;20444;-50
2023/02/11 02:29:07;;;;;;;27.97;19.33;;;4.80;50.10;;;;;;5024287;28;20475;-51
2023/02/11 02:31:35;;;;;;;27.37;18.57;;;4.80;50.10;;;;;;5028991;28;20444;-53
2023/02/11 02:34:08;;;;;;;31.63;19.60;;;4.80;50.20;;;;;;5024621;28;20448;-51
2023/02/11 02:36:39;;;;;;;30.93;20.43;;;4.70;50.30;;;;;;5027117;28;20928;-51
2023/02/11 02:39:20;;;;;;;30.43;19.20;;;4.70;50.50;;;;;;5023686;28;20453;-54
2023/02/11 02:41:48;;;;;;;29.57;18.77;;;4.70;50.50;;;;;;5024262;28;20503;-51
2023/02/11 02:44:13;;;;;;;27.40;17.47;;;4.70;50.70;;;;;;5020897;28;20443;-54
2023/02/11 02:46:39;;;;;;;34.43;19.13;;;4.70;50.80;;;;;;5010993;28;20456;-51
2023/02/11 02:49:11;;;;;;;28.13;18.20;;;4.30;50.90;;;;;;5012824;28;20200;-50
2023/02/11 02:52:00;;;;;;;27.53;18.60;;;3.90;52.00;;;;;;5026997;28;20247;-53
2023/02/11 02:54:29;;;;;;;27.97;17.47;;;3.70;52.90;;;;;;5032560;28;20458;-51
2023/02/11 02:57:22;;;;;;;27.53;17.90;;;3.80;53.40;;;;;;5024499;28;20443;-52
2023/02/11 03:00:13;;;;;;;29.23;19.23;;;4.10;53.00;;;;;;5018942;28;20424;-50
2023/02/11 03:03:23;;;;;;;30.57;18.20;;;4.30;52.20;;;;;;5014696;28;20432;-50
2023/02/11 03:05:59;;;;;;;34.67;19.70;;;4.50;51.90;;;;;;5004854;28;20547;-50
2023/02/11 03:08:35;;;;;;;32.33;20.00;;;4.60;51.60;;;;;;5031228;28;20428;-52
2023/02/11 03:11:04;;;;;;;28.70;18.37;;;4.70;51.60;;;;;;5030010;28;20481;-50
2023/02/11 03:13:32;;;;;;;33.17;18.73;;;4.70;51.50;;;;;;5019626;28;20440;-51
2023/02/11 03:16:05;;;;;;;31.47;19.70;;;4.70;51.40;;;;;;5025066;28;20440;-55
2023/02/11 03:18:35;;;;;;;26.60;17.57;;;4.50;51.60;;;;;;5019078;28;20420;-53
2023/02/11 03:21:02;;;;;;;32.20;18.37;;;4.50;52.10;;;;;;5029038;28;20497;-50
2023/02/11 03:23:49;;;;;;;25.37;17.57;;;4.20;51.90;;;;;;5022985;28;20490;-51
2023/02/11 03:26:29;;;;;;;27.23;17.90;;;3.80;53.00;;;;;;5021497;28;20440;-50
2023/02/11 03:29:05;;;;;;;28.77;18.10;;;3.60;53.40;;;;;;5016085;28;20487;-55
2023/02/11 03:31:52;;;;;;;26.90;17.73;;;3.80;53.70;;;;;;5028692;28;20443;-50
2023/02/11 03:34:27;;;;;;;27.30;17.70;;;3.80;53.60;;;;;;5025542;28;20455;-50
2023/02/11 03:36:59;;;;;;;28.30;18.07;;;4.10;53.30;;;;;;5025352;28;20501;-52
2023/02/11 03:39:33;;;;;;;28.93;17.87;;;4.20;52.80;;;;;;5025288;28;20440;-51
2023/02/11 03:42:01;;;;;;;24.20;17.13;;;4.30;52.90;;;;;;5025967;28;20566;-51
2023/02/11 03:44:31;;;;;;;27.60;17.97;;;4.40;52.60;;;;;;5023336;28;20456;-51
2023/02/11 03:46:59;;;;;;;25.77;17.90;;;4.20;52.80;;;;;;5014045;28;20444;-54
2023/02/11 03:49:27;;;;;;;29.77;19.30;;;4.30;52.70;;;;;;5023405;28;20472;-50
2023/02/11 03:51:54;;;;;;;25.27;17.30;;;4.30;52.60;;;;;;5024422;28;20445;-51
2023/02/11 03:54:26;;;;;;;27.40;17.63;;;4.40;52.60;;;;;;5025629;28;20446;-51
2023/02/11 03:56:55;;;;;;;29.53;18.20;;;4.30;52.70;;;;;;5021668;28;20448;-52
2023/02/11 03:59:20;;;;;;;26.77;18.17;;;4.30;52.80;;;;;;5025222;28;20444;-51
2023/02/11 04:01:46;;;;;;;29.80;18.10;;;4.40;53.00;;;;;;5025608;28;20514;-52
2023/02/11 04:04:12;;;;;;;30.40;18.00;;;4.60;52.70;;;;;;5019874;28;20201;-52
2023/02/11 04:06:37;;;;;;;25.70;18.43;;;4.30;52.70;;;;;;5023630;28;20622;-52
2023/02/11 04:09:03;;;;;;;31.27;18.50;;;4.20;53.10;;;;;;5024339;28;20201;-51
2023/02/11 04:11:29;;;;;;;26.57;18.20;;;4.00;53.40;;;;;;5019990;28;20623;-51
2023/02/11 04:13:54;;;;;;;27.77;18.70;;;4.00;53.90;;;;;;5025140;28;20619;-52
2023/02/11 04:16:20;;;;;;;32.33;18.93;;;4.20;53.80;;;;;;5019715;28;20568;-53
2023/02/11 04:18:46;;;;;;;28.30;19.20;;;4.40;53.40;;;;;;5023538;28;20185;-51
2023/02/11 04:21:11;;;;;;;30.90;18.90;;;4.30;53.40;;;;;;5012510;28;20264;-53
2023/02/11 04:23:37;;;;;;;31.27;19.57;;;4.40;53.20;;;;;;5019615;28;20196;-51
2023/02/11 04:26:03;;;;;;;30.23;18.90;;;4.50;53.10;;;;;;5027144;28;20193;-52
2023/02/11 04:28:28;;;;;;;29.47;18.30;;;4.50;52.70;;;;;;5027314;28;20548;-54
2023/02/11 04:30:54;;;;;;;32.40;18.90;;;4.40;53.00;;;;;;5023246;28;20239;-51
2023/02/11 04:33:20;;;;;;;32.43;19.30;;;4.40;53.00;;;;;;5034180;28;20201;-51
2023/02/11 04:35:47;;;;;;;28.60;18.93;;;4.40;53.50;;;;;;5027640;28;20440;-51
2023/02/11 04:38:12;;;;;;;29.77;19.20;;;4.50;53.20;;;;;;5021466;28;20448;-54
2023/02/11 04:40:38;;;;;;;27.53;17.80;;;4.50;53.20;;;;;;5028252;28;20534;-55
2023/02/11 04:43:04;;;;;;;27.57;17.37;;;4.60;53.10;;;;;;5025963;28;20189;-51
2023/02/11 04:45:30;;;;;;;30.90;18.67;;;4.50;53.10;;;;;;5015759;28;20448;-51
2023/02/11 04:47:55;;;;;;;24.90;18.47;;;4.20;53.40;;;;;;5024949;28;20224;-52
2023/02/11 04:50:21;;;;;;;29.53;18.20;;;3.90;54.10;;;;;;5023941;28;20244;-52
2023/02/11 04:52:47;;;;;;;27.80;17.00;;;3.70;54.90;;;;;;5032774;28;20229;-50
2023/02/11 04:55:12;;;;;;;25.33;17.20;;;3.80;55.30;;;;;;5020921;28;20217;-51
2023/02/11 04:57:38;;;;;;;29.43;18.50;;;3.90;55.20;;;;;;5033787;28;20580;-51
2023/02/11 05:00:05;;;;;;;30.67;18.50;;;4.00;54.70;;;;;;5033842;28;20630;-51
2023/02/11 05:02:31;;;;;;;31.03;20.07;;;4.10;54.50;;;;;;5033761;28;20212;-50
2023/02/11 05:04:56;;;;;;;34.60;18.37;;;4.20;54.20;;;;;;5016013;28;20429;-51
2023/02/11 05:07:22;;;;;;;29.77;18.20;;;4.40;54.10;;;;;;5018663;28;21254;-51
2023/02/11 05:09:47;;;;;;;26.77;18.67;;;4.50;53.80;;;;;;5028708;28;20229;-51
2023/02/11 05:12:13;;;;;;;29.80;18.50;;;4.50;53.30;;;;;;5014096;28;20645;-51
2023/02/11 05:14:39;;;;;;;25.30;18.10;;;4.20;53.70;;;;;;5017546;28;20315;-51
2023/02/11 05:17:04;;;;;;;30.53;18.20;;;3.80;54.50;;;;;;5020797;28;20277;-52
2023/02/11 05:19:30;;;;;;;28.77;19.50;;;3.70;55.60;;;;;;5013566;28;20225;-52
2023/02/11 05:21:56;;;;;;;27.17;17.70;;;3.80;55.70;;;;;;5013658;28;20276;-52
2023/02/11 05:24:22;;;;;;;31.70;20.13;;;3.80;55.60;;;;;;5013670;28;20892;-52
2023/02/11 05:26:47;;;;;;;29.60;19.23;;;3.90;55.60;;;;;;5031025;28;20201;-53
2023/02/11 05:29:13;;;;;;;28.80;18.17;;;4.10;55.30;;;;;;5015536;28;20275;-52
2023/02/11 05:31:38;;;;;;;25.97;17.93;;;4.10;55.10;;;;;;5024475;28;20197;-52
2023/02/11 05:34:04;;;;;;;32.80;19.20;;;4.40;55.00;;;;;;5032362;28;20652;-52
2023/02/11 05:36:30;;;;;;;29.87;19.67;;;4.70;54.50;;;;;;5023436;28;20200;-53
2023/02/11 05:38:56;;;;;;;29.33;19.17;;;4.80;53.90;;;;;;5025004;28;20280;-51
2023/02/11 05:41:22;;;;;;;27.30;17.97;;;4.90;53.70;;;;;;5033475;28;20602;-51
2023/02/11 05:43:51;;;;;;;30.17;19.17;;;4.80;53.60;;;;;;5029531;28;20198;-54
2023/02/11 05:46:17;;;;;;;34.17;19.70;;;4.90;53.50;;;;;;5027774;28;20189;-51
2023/02/11 05:48:43;;;;;;;30.90;20.17;;;4.80;53.60;;;;;;5020196;28;21015;-51
2023/02/11 05:51:08;;;;;;;32.93;21.27;;;4.90;53.80;;;;;;5032618;28;20421;-51
2023/02/11 05:53:34;;;;;;;25.47;18.30;;;5.00;53.60;;;;;;5018068;28;20560;-51
2023/02/11 05:56:00;;;;;;;30.43;18.50;;;5.10;53.40;;;;;;5033076;28;20197;-51
2023/02/11 05:58:26;;;;;;;35.53;20.53;;;4.90;53.30;;;;;;5032287;28;20205;-51
2023/02/11 06:00:51;;;;;;;28.73;19.77;;;4.70;53.40;;;;;;5033980;28;20327;-51
2023/02/11 06:03:17;;;;;;;29.07;19.70;;;4.80;53.90;;;;;;5020456;28;20190;-50
2023/02/11 06:05:44;;;;;;;29.57;19.50;;;4.90;53.70;;;;;;5021729;28;20695;-51
2023/02/11 06:08:10;;;;;;;32.30;19.80;;;5.00;53.70;;;;;;5022289;28;20204;-51
2023/02/11 06:10:36;;;;;;;32.43;18.83;;;5.20;53.30;;;;;;5021428;28;20939;-55
2023/02/11 06:13:02;;;;;;;32.33;20.30;;;5.30;53.30;;;;;;5024069;28;20432;-52
2023/02/11 06:15:27;;;;;;;29.67;19.47;;;5.40;53.00;;;;;;5032921;28;20228;-52
2023/02/11 06:17:53;;;;;;;28.90;18.93;;;5.50;52.80;;;;;;5026998;28;20567;-52
2023/02/11 06:20:19;;;;;;;25.20;17.73;;;5.60;52.70;;;;;;5019818;28;20297;-53
2023/02/11 06:22:44;;;;;;;24.10;15.97;;;5.60;52.70;;;;;;5021665;28;20201;-54
2023/02/11 06:25:10;;;;;;;29.40;17.73;;;5.80;52.80;;;;;;5028301;28;20255;-54
2023/02/11 06:27:36;;;;;;;23.77;15.40;;;6.00;54.70;;;;;;5020125;28;20604;-54
2023/02/11 06:30:03;;;;;;;26.90;18.63;;;6.40;56.80;;;;;;5029400;28;20312;-54
2023/02/11 06:32:29;;;;;;;26.03;16.50;;;6.90;56.60;;;;;;5031425;28;20455;-52
2023/02/11 06:34:55;;;;;;;26.27;17.33;;;7.30;55.50;;;;;;5026173;28;20444;-52
2023/02/11 06:37:20;;;;;;;26.63;18.40;;;7.70;54.50;;;;;;5023955;28;20226;-54
2023/02/11 06:39:46;;;;;;;30.27;18.70;;;7.90;52.50;;;;;;5025595;28;20232;-53
2023/02/11 06:42:11;;;;;;;26.73;18.23;;;8.10;51.10;;;;;;5019690;28;20262;-52
2023/02/11 06:44:37;;;;;;;26.03;18.20;;;8.10;49.80;;;;;;5024724;28;20267;-51
2023/02/11 06:47:03;;;;;;;25.77;17.80;;;8.20;48.70;;;;;;5024366;28;20208;-53
2023/02/11 06:49:29;;;;;;;28.30;19.70;;;8.30;49.00;;;;;;5027567;28;20221;-53
2023/02/11 06:51:54;;;;;;;29.23;19.50;;;8.50;48.90;;;;;;5027655;28;20204;-52
2023/02/11 06:54:20;;;;;;;27.10;18.97;;;8.70;48.50;;;;;;5027122;28;20200;-52
2023/02/11 06:56:45;;;;;;;28.50;19.90;;;8.80;47.80;;;;;;5025492;28;20194;-52
2023/02/11 06:59:15;;;;;;;28.27;19.70;;;8.90;47.60;;;;;;5025310;28;20259;-54
2023/02/11 07:01:41;;;;;;;29.23;18.50;;;9.00;47.40;;;;;;5027292;28;20232;-52
2023/02/11 07:04:07;;;;;;;26.53;19.30;;;9.10;46.80;;;;;;5023013;28;20506;-52
2023/02/11 07:06:33;;;;;;;24.00;18.17;;;9.10;46.30;;;;;;5024030;28;20190;-52
2023/02/11 07:08:58;;;;;;;30.93;19.90;;;9.00;46.00;;;;;;5016539;28;20229;-53
2023/02/11 07:11:27;;;;;;;28.90;19.63;;;8.90;46.30;;;;;;5024783;28;20247;-49
2023/02/11 07:13:54;;;;;;;29.47;19.60;;;8.90;46.30;;;;;;5028324;28;20645;-52
2023/02/11 07:16:21;;;;;;;27.13;20.40;;;8.70;45.70;;;;;;5022463;28;20473;-53
2023/02/11 07:18:47;;;;;;;32.23;22.73;;;8.30;45.90;;;;;;5024291;28;20440;-54
2023/02/11 07:21:15;;;;;;;30.97;21.10;;;8.10;46.40;;;;;;5017968;28;20487;-51
2023/02/11 07:23:41;;;;;;;29.83;20.73;;;7.70;47.00;;;;;;5023216;28;20452;-51
2023/02/11 07:26:13;;;;;;;31.77;20.80;;;7.30;48.30;;;;;;5015498;28;20716;-54
2023/02/11 07:28:39;;;;;;;32.03;20.87;;;7.30;48.60;;;;;;5023328;28;20837;-52
2023/02/11 07:31:07;;;;;;;33.63;21.10;;;7.30;48.60;;;;;;5026344;28;20467;-53
2023/02/11 07:33:34;;;;;;;27.57;20.03;;;7.30;48.60;;;;;;5024062;28;20448;-54
2023/02/11 07:36:00;;;;;;;29.60;20.80;;;7.30;48.60;;;;;;5024916;28;20545;-53
2023/02/11 07:38:26;;;;;;;29.23;21.57;;;7.30;48.70;;;;;;5025819;28;20480;-51
2023/02/11 07:40:52;;;;;;;29.27;21.53;;;7.40;48.80;;;;;;5027594;28;20612;-54
2023/02/11 07:43:17;;;;;;;32.40;21.60;;;7.50;48.60;;;;;;5030906;28;20514;-52
2023/02/11 07:45:43;;;;;;;34.00;21.73;;;7.40;48.50;;;;;;5030212;28;20204;-52
2023/02/11 07:48:08;;;;;;;31.70;21.20;;;7.40;48.60;;;;;;5016620;28;20194;-52
2023/02/11 07:50:34;;;;;;;30.93;20.27;;;7.50;48.60;;;;;;5011395;28;20190;-54
2023/02/11 07:53:00;;;;;;;29.30;20.97;;;7.50;48.80;;;;;;5011639;28;20588;-54
2023/02/11 07:55:26;;;;;;;29.63;20.20;;;7.60;48.90;;;;;;5011195;28;20259;-54
2023/02/11 07:57:51;;;;;;;27.00;21.00;;;7.60;48.80;;;;;;5020989;28;20498;-54
2023/02/11 08:00:17;;;;;;;33.93;24.40;;;7.70;48.90;;;;;;5011388;28;20205;-49
2023/02/11 08:02:42;;;;;;;34.77;24.40;;;7.70;48.60;;;;;;5013990;28;20195;-51
2023/02/11 08:05:08;;;;;;;33.77;23.50;;;7.60;48.80;;;;;;5009505;28;20189;-52
2023/02/11 08:07:34;;;;;;;28.60;20.67;;;7.70;49.20;;;;;;5020460;28;20185;-52
2023/02/11 08:09:59;;;;;;;34.37;22.23;;;7.70;49.10;;;;;;5011234;28;20202;-54
2023/02/11 08:12:25;;;;;;;26.97;20.30;;;7.70;49.10;;;;;;5011009;28;20198;-52
2023/02/11 08:14:50;;;;;;;35.33;19.93;;;7.40;49.50;;;;;;5011283;28;20189;-55
2023/02/11 08:17:16;;;;;;;26.70;18.43;;;7.50;49.80;;;;;;5014764;28;20193;-54
2023/02/11 08:19:42;;;;;;;28.97;18.77;;;7.60;49.80;;;;;;5030461;28;20292;-52
2023/02/11 08:22:07;;;;;;;31.17;20.90;;;7.80;49.60;;;;;;5030606;28;20229;-54
2023/02/11 08:24:33;;;;;;;31.03;21.70;;;7.90;49.80;;;;;;5030666;28;20424;-54
2023/02/11 08:26:58;;;;;;;29.00;19.37;;;8.00;49.90;;;;;;5030404;28;20275;-54
2023/02/11 08:29:24;;;;;;;28.17;19.27;;;8.20;49.60;;;;;;5029563;28;20288;-52
2023/02/11 08:31:50;;;;;;;25.97;18.60;;;8.30;49.10;;;;;;5028359;28;20223;-52
2023/02/11 08:34:17;;;;;;;26.20;18.13;;;8.30;49.00;;;;;;5027694;28;20193;-54
2023/02/11 08:36:45;;;;;;;27.40;19.67;;;8.40;48.80;;;;;;5017879;28;20208;-54
2023/02/11 08:39:19;;;;;;;28.73;19.33;;;8.50;48.40;;;;;;5010883;28;20448;-52
2023/02/11 08:41:49;;;;;;;31.50;21.17;;;8.40;48.50;;;;;;5010674;28;20488;-53
2023/02/11 08:44:16;;;;;;;30.83;21.40;;;8.40;49.10;;;;;;5010552;28;20522;-54
2023/02/11 08:46:42;;;;;;;36.50;22.27;;;8.20;49.40;;;;;;5026898;28;20515;-52
2023/02/11 08:49:08;;;;;;;31.47;20.60;;;8.30;50.20;;;;;;5025047;28;20464;-52
2023/02/11 08:51:33;;;;;;;33.60;22.90;;;8.20;49.60;;;;;;5030414;28;20219;-53
2023/02/11 08:54:00;;;;;;;33.13;21.57;;;8.00;49.90;;;;;;5030515;28;20236;-53
2023/02/11 08:56:26;;;;;;;28.63;20.00;;;8.00;50.10;;;;;;5030143;28;20208;-52
2023/02/11 08:58:52;;;;;;;30.17;20.37;;;7.70;50.60;;;;;;5027485;28;20459;-54
2023/02/11 09:01:24;;;;;;;31.13;20.57;;;7.80;51.10;;;;;;5025375;28;20479;-53
2023/02/11 09:03:50;;;;;;;39.20;24.73;;;7.80;50.70;;;;;;5027893;28;20521;-51
2023/02/11 09:06:17;;;;;;;27.03;18.53;;;8.00;50.70;;;;;;5014087;28;20447;-52
2023/02/11 09:08:47;;;;;;;27.93;19.43;;;8.10;50.20;;;;;;5010364;28;20432;-53
2023/02/11 09:11:13;;;;;;;24.43;17.43;;;8.20;50.20;;;;;;5013539;28;20420;-51
2023/02/11 09:13:41;;;;;;;27.47;19.30;;;8.10;50.10;;;;;;5018241;28;20501;-55
2023/02/11 09:16:07;;;;;;;27.10;19.33;;;8.20;49.90;;;;;;5030138;28;20433;-53
2023/02/11 09:18:33;;;;;;;30.10;21.80;;;8.30;50.00;;;;;;5013900;28;20430;-55
2023/02/11 09:21:08;;;;;;;25.77;18.47;;;8.60;49.30;;;;;;5014067;28;20516;-55
2023/02/11 09:23:34;;;;;;;24.97;17.60;;;8.50;49.00;;;;;;5013978;28;20428;-53
2023/02/11 09:26:07;;;;;;;28.20;19.53;;;8.60;48.80;;;;;;5031749;28;20515;-54
2023/02/11 09:28:32;;;;;;;24.03;18.13;;;8.70;48.70;;;;;;5033175;28;20885;-51
2023/02/11 09:30:58;;;;;;;27.27;17.17;;;8.90;48.30;;;;;;5033506;28;20511;-55
2023/02/11 09:33:23;;;;;;;21.70;16.83;;;9.10;47.70;;;;;;5021372;28;20214;-55
2023/02/11 09:35:49;;;;;;;26.13;16.70;;;9.10;47.50;;;;;;5020365;28;20212;-53
2023/02/11 09:38:14;;;;;;;27.40;18.00;;;9.40;47.60;;;;;;5018100;28;20673;-54
2023/02/11 09:40:44;;;;;;;29.40;18.90;;;9.70;47.10;;;;;;5028225;28;20229;-52
2023/02/11 09:43:19;;;;;;;25.30;17.17;;;10.00;45.80;;;;;;5025345;28;20193;-52
2023/02/11 09:45:46;;;;;;;20.83;15.97;;;10.30;45.40;;;;;;5023382;28;20585;-50
2023/02/11 09:48:18;;;;;;;26.10;16.40;;;10.60;45.00;;;;;;5024717;28;20957;-51
2023/02/11 09:50:57;;;;;;;22.20;15.07;;;11.00;44.50;;;;;;5023900;28;20603;-51
2023/02/11 09:53:29;;;;;;;23.20;16.00;;;11.30;43.40;;;;;;5018618;28;20440;-49
2023/02/11 09:55:58;;;;;;;20.27;15.27;;;11.50;43.30;;;;;;5013314;28;20518;-51
2023/02/11 09:58:30;;;;;;;20.63;14.80;;;11.80;43.00;;;;;;5020275;28;20440;-50
2023/02/11 10:01:29;;;;;;;18.17;14.40;;;11.90;43.00;;;;;;5028112;28;20483;-50
2023/02/11 10:04:03;;;;;;;21.50;16.60;;;11.80;42.50;;;;;;5026801;28;20479;-49
2023/02/11 10:06:50;;;;;;;21.20;15.87;;;12.00;42.80;;;;;;5026694;28;20505;-50
2023/02/11 10:09:37;;;;;;;15.93;13.80;;;12.20;42.50;;;;;;5028231;28;20803;-51
2023/02/11 10:12:09;;;;;;;24.70;13.37;;;12.50;42.40;;;;;;5026295;28;20447;-50
2023/02/11 10:14:56;;;;;;;23.27;14.00;;;12.70;41.80;;;;;;5023064;28;20436;-50
2023/02/11 10:17:59;;;;;;;16.40;12.47;;;12.90;41.70;;;;;;5024626;28;20524;-49
2023/02/11 10:20:37;;;;;;;19.07;14.70;;;13.20;41.60;;;;;;5021591;28;20608;-50
2023/02/11 10:23:12;;;;;;;17.37;14.10;;;13.60;41.40;;;;;;5023634;28;20464;-53
2023/02/11 10:25:43;;;;;;;16.13;13.37;;;13.80;40.70;;;;;;5027688;28;20435;-53
2023/02/11 10:28:16;;;;;;;15.50;13.63;;;14.10;40.30;;;;;;5024780;28;21041;-51
2023/02/11 10:31:04;;;;;;;15.33;11.87;;;14.00;39.30;;;;;;5030104;28;20459;-51
2023/02/11 10:33:38;;;;;;;17.03;12.60;;;13.80;40.00;;;;;;5020083;28;20467;-50
2023/02/11 10:36:04;;;;;;;17.83;13.10;;;14.00;40.00;;;;;;5027922;28;20444;-49
2023/02/11 10:38:31;;;;;;;15.10;13.17;;;14.30;39.50;;;;;;5027978;28;20451;-51
2023/02/11 10:40:57;;;;;;;14.43;11.47;;;14.60;40.20;;;;;;5026872;28;20495;-49
2023/02/11 10:43:26;;;;;;;12.10;10.33;;;14.80;39.30;;;;;;5020780;28;20448;-53
2023/02/11 10:45:54;;;;;;;14.50;11.00;;;14.90;39.00;;;;;;5024880;28;20204;-53
2023/02/11 10:48:38;;;;;;;15.77;10.90;;;15.00;39.00;;;;;;5023139;28;20456;-50
2023/02/11 10:51:10;;;;;;;11.77;9.83;;;15.10;39.40;;;;;;5028420;28;20493;-52
2023/02/11 10:53:36;;;;;;;13.20;10.90;;;15.20;38.90;;;;;;5023765;28;20454;-51
2023/02/11 10:56:02;;;;;;;10.60;9.50;;;15.20;38.70;;;;;;5028100;28;20436;-53
2023/02/11 10:58:41;;;;;;;8.87;8.07;;;15.30;38.40;;;;;;5023619;28;20478;-52
2023/02/11 11:01:07;;;;;;;14.60;8.33;;;15.40;38.90;;;;;;5021844;28;20585;-53
2023/02/11 11:03:38;;;;;;;12.63;9.70;;;15.40;38.60;;;;;;5029538;28;21199;-51
2023/02/11 11:06:06;;;;;;;13.63;9.20;;;15.50;38.50;;;;;;5023694;28;20193;-52
2023/02/11 11:08:44;;;;;;;10.33;9.23;;;15.60;38.60;;;;;;5028845;28;20531;-50
2023/02/11 11:11:13;;;;;;;13.63;8.80;;;15.70;38.30;;;;;;5024362;28;20467;-50
2023/02/11 11:14:02;;;;;;;11.97;9.50;;;15.80;37.80;;;;;;5025895;28;20444;-51
2023/02/11 11:16:31;;;;;;;13.10;9.97;;;15.90;37.30;;;;;;5021494;28;20506;-53
2023/02/11 11:19:05;;;;;;;12.93;9.93;;;16.00;37.20;;;;;;5026429;28;20458;-54
2023/02/11 11:21:40;;;;;;;10.77;9.67;;;16.20;37.00;;;;;;5028829;28;20494;-52
2023/02/11 11:24:34;;;;;;;11.97;10.50;;;16.20;37.50;;;;;;5022277;28;20520;-54
2023/02/11 11:27:01;;;;;;;11.20;10.00;;;16.10;36.90;;;;;;5011146;28;20820;-53
2023/02/11 11:29:46;;;;;;;11.63;10.43;;;16.10;37.50;;;;;;5027806;28;20558;-54
2023/02/11 11:32:19;;;;;;;15.20;10.53;;;16.10;37.30;;;;;;5024778;28;20435;-52
2023/02/11 11:34:54;;;;;;;14.20;9.67;;;16.20;37.40;;;;;;5016532;28;20445;-54
2023/02/11 11:37:33;;;;;;;11.37;9.77;;;16.30;36.90;;;;;;5015304;28;20445;-53
2023/02/11 11:40:16;;;;;;;11.23;10.03;;;16.40;36.80;;;;;;5019640;28;20444;-52
2023/02/11 11:42:42;;;;;;;11.77;9.50;;;16.30;37.30;;;;;;5022728;28;20486;-53
2023/02/11 11:45:23;;;;;;;12.23;10.17;;;16.20;37.70;;;;;;5017704;28;20443;-51
2023/02/11 11:47:56;;;;;;;12.37;9.60;;;16.30;37.70;;;;;;5021041;28;20955;-52
2023/02/11 11:50:36;;;;;;;14.10;10.27;;;16.30;38.00;;;;;;5017484;28;20924;-52
2023/02/11 11:53:23;;;;;;;10.83;8.40;;;16.40;37.60;;;;;;5027384;28;20459;-49
2023/02/11 11:56:13;;;;;;;10.63;8.57;;;16.40;37.80;;;;;;5027348;28;20455;-50
2023/02/11 11:58:39;;;;;;;9.77;8.77;;;16.50;37.30;;;;;;5028683;28;20487;-50
2023/02/11 12:01:13;;;;;;;9.80;8.80;;;16.50;37.60;;;;;;5017029;28;20546;-50
2023/02/11 12:04:01;;;;;;;11.00;8.50;;;16.50;37.50;;;;;;5021838;28;20444;-53
2023/02/11 12:06:52;;;;;;;8.80;7.83;;;16.50;37.60;;;;;;5027112;28;20479;-50
2023/02/11 12:09:32;;;;;;;8.00;7.00;;;16.60;37.80;;;;;;5026271;28;20930;-49
2023/02/11 12:12:04;;;;;;;9.70;8.23;;;16.60;37.90;;;;;;5009555;28;20943;-49
2023/02/11 12:14:48;;;;;;;7.77;7.03;;;16.60;38.10;;;;;;5021507;28;20494;-53
2023/02/11 12:17:21;;;;;;;9.90;7.70;;;16.60;38.60;;;;;;5024934;28;20555;-52
2023/02/11 12:19:59;;;;;;;7.77;6.97;;;16.60;38.10;;;;;;5021854;28;20541;-51
2023/02/11 12:22:24;;;;;;;8.27;7.27;;;16.50;38.60;;;;;;5011116;28;20566;-49
2023/02/11 12:25:08;;;;;;;8.13;7.03;;;16.50;39.00;;;;;;5022584;28;20883;-49
2023/02/11 12:27:44;;;;;;;7.93;6.63;;;16.50;38.80;;;;;;5027423;28;20194;-50
2023/02/11 12:30:20;;;;;;;10.50;8.20;;;16.40;38.90;;;;;;5025838;28;20479;-49
2023/02/11 12:32:58;;;;;;;8.40;7.37;;;16.30;39.10;;;;;;5028010;28;20529;-50
2023/02/11 12:36:04;;;;;;;7.47;6.73;;;16.30;39.20;;;;;;5023545;28;20475;-49
2023/02/11 12:38:42;;;;;;;9.70;7.57;;;16.40;39.40;;;;;;5021225;28;20498;-49
2023/02/11 12:43:14;;;;;;;10.93;7.77;;;16.30;39.60;;;;;;5023129;28;20633;-49
2023/02/11 12:44:11;;;;;;;8.80;7.83;;;16.30;39.10;;;;;;5021086;28;20483;-49
2023/02/11 12:46:57;;;;;;;10.63;8.27;;;16.40;39.50;;;;;;5017704;28;20448;-53
2023/02/11 12:50:06;;;;;;;9.20;7.60;;;16.20;39.50;;;;;;5027188;28;20492;-49
2023/02/11 12:52:40;;;;;;;9.23;7.83;;;16.10;39.80;;;;;;4992620;28;20853;-50
2023/02/11 12:55:28;;;;;;;13.07;8.60;;;16.10;40.30;;;;;;5028293;28;20466;-49
2023/02/11 12:57:58;;;;;;;11.77;9.23;;;16.20;40.30;;;;;;5021023;28;20435;-50